sensor_id;sensor_type;location;lat;lon;timestamp;temperature;humidity
39925;DHT22;25592;49.986;11.618;2024-03-25T00:00:14;5.80;99.90
39925;DHT22;25592;49.986;11.618;2024-03-25T00:02:59;5.70;99.90
39925;DHT22;25592;49.986;11.618;2024-03-25T00:05:43;5.70;99.90
39925;DHT22;25592;49.986;11.618;2024-03-25T00:08:28;5.80;99.90
39925;DHT22;25592;49.986;11.618;2024-03-25T00:11:13;5.90;99.90
39925;DHT22;25592;49.986;11.618;2024-03-25T00:13:57;5.90;99.90
39925;DHT22;25592;49.986;11.618;2024-03-25T00:16:42;5.70;99.90
39925;DHT22;25592;49.986;11.618;2024-03-25T00:19:26;5.80;99.90
39925;DHT22;25592;49.986;11.618;2024-03-25T00:22:12;5.90;99.90
39925;DHT22;25592;49.986;11.618;2024-03-25T00:24:56;5.90;99.90
39925;DHT22;25592;49.986;11.618;2024-03-25T00:27:41;5.80;99.90
39925;DHT22;25592;49.986;11.618;2024-03-25T00:30:25;5.70;99.90
39925;DHT22;25592;49.986;11.618;2024-03-25T00:33:10;5.70;99.90
39925;DHT22;25592;49.986;11.618;2024-03-25T00:35:55;5.80;99.90
39925;DHT22;25592;49.986;11.618;2024-03-25T00:38:40;5.90;99.90
39925;DHT22;25592;49.986;11.618;2024-03-25T00:41:25;5.80;99.90
39925;DHT22;25592;49.986;11.618;2024-03-25T00:44:09;5.80;99.90
39925;DHT22;25592;49.986;11.618;2024-03-25T00:46:54;5.70;99.90
39925;DHT22;25592;49.986;11.618;2024-03-25T00:49:39;5.70;99.90
39925;DHT22;25592;49.986;11.618;2024-03-25T00:52:23;5.80;99.90
39925;DHT22;25592;49.986;11.618;2024-03-25T00:55:09;5.90;99.90
39925;DHT22;25592;49.986;11.618;2024-03-25T00:57:53;5.90;99.90
39925;DHT22;25592;49.986;11.618;2024-03-25T01:00:38;6.00;99.90
39925;DHT22;25592;49.986;11.618;2024-03-25T01:03:22;6.10;99.90
39925;DHT22;25592;49.986;11.618;2024-03-25T01:06:07;6.10;99.90
39925;DHT22;25592;49.986;11.618;2024-03-25T01:08:52;6.00;99.90
39925;DHT22;25592;49.986;11.618;2024-03-25T01:11:37;6.00;99.90
39925;DHT22;25592;49.986;11.618;2024-03-25T01:14:21;5.90;99.90
39925;DHT22;25592;49.986;11.618;2024-03-25T01:17:06;5.80;99.90
39925;DHT22;25592;49.986;11.618;2024-03-25T01:19:51;5.90;99.90
39925;DHT22;25592;49.986;11.618;2024-03-25T01:22:36;5.90;99.90
39925;DHT22;25592;49.986;11.618;2024-03-25T01:25:20;5.80;99.90
39925;DHT22;25592;49.986;11.618;2024-03-25T01:28:05;5.70;99.90
39925;DHT22;25592;49.986;11.618;2024-03-25T01:30:50;5.70;99.90
39925;DHT22;25592;49.986;11.618;2024-03-25T01:33:34;5.60;99.90
39925;DHT22;25592;49.986;11.618;2024-03-25T01:36:19;5.80;99.90
39925;DHT22;25592;49.986;11.618;2024-03-25T01:39:03;5.70;99.90
39925;DHT22;25592;49.986;11.618;2024-03-25T01:41:49;5.70;99.90
39925;DHT22;25592;49.986;11.618;2024-03-25T01:44:34;5.70;99.90
39925;DHT22;25592;49.986;11.618;2024-03-25T01:47:18;5.60;99.90
39925;DHT22;25592;49.986;11.618;2024-03-25T01:50:03;5.60;99.90
39925;DHT22;25592;49.986;11.618;2024-03-25T01:52:48;5.70;99.90
39925;DHT22;25592;49.986;11.618;2024-03-25T01:55:34;5.70;99.90
39925;DHT22;25592;49.986;11.618;2024-03-25T01:58:19;5.80;99.90
39925;DHT22;25592;49.986;11.618;2024-03-25T02:01:04;5.70;99.90
39925;DHT22;25592;49.986;11.618;2024-03-25T02:03:49;5.80;99.90
39925;DHT22;25592;49.986;11.618;2024-03-25T02:06:34;5.90;99.90
39925;DHT22;25592;49.986;11.618;2024-03-25T02:09:20;5.80;99.90
39925;DHT22;25592;49.986;11.618;2024-03-25T02:12:05;5.90;99.90
39925;DHT22;25592;49.986;11.618;2024-03-25T02:14:50;5.90;99.90
39925;DHT22;25592;49.986;11.618;2024-03-25T02:17:35;5.90;99.90
39925;DHT22;25592;49.986;11.618;2024-03-25T02:20:20;5.80;99.90
39925;DHT22;25592;49.986;11.618;2024-03-25T02:23:04;5.80;99.90
39925;DHT22;25592;49.986;11.618;2024-03-25T02:25:50;5.80;99.90
39925;DHT22;25592;49.986;11.618;2024-03-25T02:28:35;5.90;99.90
39925;DHT22;25592;49.986;11.618;2024-03-25T02:31:19;6.00;99.90
39925;DHT22;25592;49.986;11.618;2024-03-25T02:34:04;6.00;99.90
39925;DHT22;25592;49.986;11.618;2024-03-25T02:36:48;5.90;99.90
39925;DHT22;25592;49.986;11.618;2024-03-25T02:39:33;5.80;99.90
39925;DHT22;25592;49.986;11.618;2024-03-25T02:42:18;5.80;99.90
39925;DHT22;25592;49.986;11.618;2024-03-25T02:45:04;5.90;99.90
39925;DHT22;25592;49.986;11.618;2024-03-25T02:47:50;5.80;99.90
39925;DHT22;25592;49.986;11.618;2024-03-25T02:50:35;5.90;99.90
39925;DHT22;25592;49.986;11.618;2024-03-25T02:53:19;5.90;99.90
39925;DHT22;25592;49.986;11.618;2024-03-25T02:56:04;5.90;99.90
39925;DHT22;25592;49.986;11.618;2024-03-25T02:58:49;6.00;99.90
39925;DHT22;25592;49.986;11.618;2024-03-25T03:01:33;5.90;99.90
39925;DHT22;25592;49.986;11.618;2024-03-25T03:04:18;5.80;99.90
39925;DHT22;25592;49.986;11.618;2024-03-25T03:07:03;5.80;99.90
39925;DHT22;25592;49.986;11.618;2024-03-25T03:09:47;5.80;99.90
39925;DHT22;25592;49.986;11.618;2024-03-25T03:12:32;5.80;99.90
39925;DHT22;25592;49.986;11.618;2024-03-25T03:15:16;5.90;99.90
39925;DHT22;25592;49.986;11.618;2024-03-25T03:18:01;5.80;99.90
39925;DHT22;25592;49.986;11.618;2024-03-25T03:20:45;5.80;99.90
39925;DHT22;25592;49.986;11.618;2024-03-25T03:23:31;5.80;99.90
39925;DHT22;25592;49.986;11.618;2024-03-25T03:26:16;5.80;99.90
39925;DHT22;25592;49.986;11.618;2024-03-25T03:29:00;5.90;99.90
39925;DHT22;25592;49.986;11.618;2024-03-25T03:31:45;6.00;99.90
39925;DHT22;25592;49.986;11.618;2024-03-25T03:34:29;6.00;99.90
39925;DHT22;25592;49.986;11.618;2024-03-25T03:37:14;6.10;99.90
39925;DHT22;25592;49.986;11.618;2024-03-25T03:39:59;6.10;99.90
39925;DHT22;25592;49.986;11.618;2024-03-25T03:42:43;6.00;99.90
39925;DHT22;25592;49.986;11.618;2024-03-25T03:45:33;6.00;99.90
39925;DHT22;25592;49.986;11.618;2024-03-25T03:48:17;6.10;99.90
39925;DHT22;25592;49.986;11.618;2024-03-25T03:51:02;6.00;99.90
39925;DHT22;25592;49.986;11.618;2024-03-25T03:53:46;5.90;99.90
39925;DHT22;25592;49.986;11.618;2024-03-25T03:56:31;5.80;99.90
39925;DHT22;25592;49.986;11.618;2024-03-25T03:59:16;5.80;99.90
39925;DHT22;25592;49.986;11.618;2024-03-25T04:02:01;5.80;99.90
39925;DHT22;25592;49.986;11.618;2024-03-25T04:04:45;5.80;99.90
39925;DHT22;25592;49.986;11.618;2024-03-25T04:07:32;5.80;99.90
39925;DHT22;25592;49.986;11.618;2024-03-25T04:10:17;5.80;99.90
39925;DHT22;25592;49.986;11.618;2024-03-25T04:13:02;5.80;99.90
39925;DHT22;25592;49.986;11.618;2024-03-25T04:15:46;5.80;99.90
39925;DHT22;25592;49.986;11.618;2024-03-25T04:18:32;5.90;99.90
39925;DHT22;25592;49.986;11.618;2024-03-25T04:21:16;5.90;99.90
39925;DHT22;25592;49.986;11.618;2024-03-25T04:24:01;5.90;99.90
39925;DHT22;25592;49.986;11.618;2024-03-25T04:26:46;5.90;99.90
39925;DHT22;25592;49.986;11.618;2024-03-25T04:29:31;6.00;99.90
39925;DHT22;25592;49.986;11.618;2024-03-25T04:32:15;6.00;99.90
39925;DHT22;25592;49.986;11.618;2024-03-25T04:35:00;6.10;99.90
39925;DHT22;25592;49.986;11.618;2024-03-25T04:37:45;6.10;99.90
39925;DHT22;25592;49.986;11.618;2024-03-25T04:40:29;6.00;99.90
39925;DHT22;25592;49.986;11.618;2024-03-25T04:43:14;6.00;99.90
39925;DHT22;25592;49.986;11.618;2024-03-25T04:46:02;6.00;99.90
39925;DHT22;25592;49.986;11.618;2024-03-25T04:48:47;6.00;99.90
39925;DHT22;25592;49.986;11.618;2024-03-25T04:51:32;6.00;99.90
39925;DHT22;25592;49.986;11.618;2024-03-25T04:54:16;6.00;99.90
39925;DHT22;25592;49.986;11.618;2024-03-25T04:57:01;5.90;99.90
39925;DHT22;25592;49.986;11.618;2024-03-25T04:59:46;6.00;99.90
39925;DHT22;25592;49.986;11.618;2024-03-25T05:02:30;6.00;99.90
39925;DHT22;25592;49.986;11.618;2024-03-25T05:05:15;6.00;99.90
39925;DHT22;25592;49.986;11.618;2024-03-25T05:08:00;6.00;99.90
39925;DHT22;25592;49.986;11.618;2024-03-25T05:10:47;6.00;99.90
39925;DHT22;25592;49.986;11.618;2024-03-25T05:13:32;6.10;99.90
39925;DHT22;25592;49.986;11.618;2024-03-25T05:16:16;6.00;99.90
39925;DHT22;25592;49.986;11.618;2024-03-25T05:19:01;6.10;99.90
39925;DHT22;25592;49.986;11.618;2024-03-25T05:21:46;6.10;99.90
39925;DHT22;25592;49.986;11.618;2024-03-25T05:24:31;6.10;99.90
39925;DHT22;25592;49.986;11.618;2024-03-25T05:27:15;6.00;99.90
39925;DHT22;25592;49.986;11.618;2024-03-25T05:30:00;6.00;99.90
39925;DHT22;25592;49.986;11.618;2024-03-25T05:32:44;6.00;99.90
39925;DHT22;25592;49.986;11.618;2024-03-25T05:35:29;6.10;99.90
39925;DHT22;25592;49.986;11.618;2024-03-25T05:38:15;5.90;99.90
39925;DHT22;25592;49.986;11.618;2024-03-25T05:40:59;5.90;99.90
39925;DHT22;25592;49.986;11.618;2024-03-25T05:43:44;5.80;99.90
39925;DHT22;25592;49.986;11.618;2024-03-25T05:46:28;5.80;99.90
39925;DHT22;25592;49.986;11.618;2024-03-25T05:49:13;5.90;99.90
39925;DHT22;25592;49.986;11.618;2024-03-25T05:51:57;6.00;99.90
39925;DHT22;25592;49.986;11.618;2024-03-25T05:54:42;6.00;99.90
39925;DHT22;25592;49.986;11.618;2024-03-25T05:57:27;6.00;99.90
39925;DHT22;25592;49.986;11.618;2024-03-25T06:00:12;5.90;99.90
39925;DHT22;25592;49.986;11.618;2024-03-25T06:02:57;6.00;99.90
39925;DHT22;25592;49.986;11.618;2024-03-25T06:05:42;6.00;99.90
39925;DHT22;25592;49.986;11.618;2024-03-25T06:08:26;6.00;99.90
39925;DHT22;25592;49.986;11.618;2024-03-25T06:11:11;6.00;99.90
39925;DHT22;25592;49.986;11.618;2024-03-25T06:13:55;5.80;99.90
39925;DHT22;25592;49.986;11.618;2024-03-25T06:16:40;5.90;99.90
39925;DHT22;25592;49.986;11.618;2024-03-25T06:19:25;6.00;99.90
39925;DHT22;25592;49.986;11.618;2024-03-25T06:22:10;5.90;99.90
39925;DHT22;25592;49.986;11.618;2024-03-25T06:24:54;6.10;99.90
39925;DHT22;25592;49.986;11.618;2024-03-25T06:27:39;5.90;99.90
39925;DHT22;25592;49.986;11.618;2024-03-25T06:30:24;6.00;99.90
39925;DHT22;25592;49.986;11.618;2024-03-25T06:33:27;6.00;99.90
39925;DHT22;25592;49.986;11.618;2024-03-25T06:36:30;6.10;99.90
39925;DHT22;25592;49.986;11.618;2024-03-25T06:39:15;6.10;99.90
39925;DHT22;25592;49.986;11.618;2024-03-25T06:41:59;6.20;99.90
39925;DHT22;25592;49.986;11.618;2024-03-25T06:44:44;6.20;99.90
39925;DHT22;25592;49.986;11.618;2024-03-25T06:47:33;6.20;99.90
39925;DHT22;25592;49.986;11.618;2024-03-25T06:50:17;6.20;99.90
39925;DHT22;25592;49.986;11.618;2024-03-25T06:53:02;6.30;99.90
39925;DHT22;25592;49.986;11.618;2024-03-25T06:55:57;6.30;99.90
39925;DHT22;25592;49.986;11.618;2024-03-25T06:58:41;6.40;99.90
39925;DHT22;25592;49.986;11.618;2024-03-25T07:01:27;6.40;99.90
39925;DHT22;25592;49.986;11.618;2024-03-25T07:04:12;6.30;99.90
39925;DHT22;25592;49.986;11.618;2024-03-25T07:06:56;6.30;99.90
39925;DHT22;25592;49.986;11.618;2024-03-25T07:09:41;6.40;99.90
39925;DHT22;25592;49.986;11.618;2024-03-25T07:12:25;6.30;99.90
39925;DHT22;25592;49.986;11.618;2024-03-25T07:15:10;6.50;99.90
39925;DHT22;25592;49.986;11.618;2024-03-25T07:17:54;6.50;99.90
39925;DHT22;25592;49.986;11.618;2024-03-25T07:20:39;6.40;99.90
39925;DHT22;25592;49.986;11.618;2024-03-25T07:23:24;6.30;99.90
39925;DHT22;25592;49.986;11.618;2024-03-25T07:26:09;6.40;99.90
39925;DHT22;25592;49.986;11.618;2024-03-25T07:28:53;6.50;99.90
39925;DHT22;25592;49.986;11.618;2024-03-25T07:31:39;6.60;99.90
39925;DHT22;25592;49.986;11.618;2024-03-25T07:34:24;6.60;99.90
39925;DHT22;25592;49.986;11.618;2024-03-25T07:37:09;6.70;99.90
39925;DHT22;25592;49.986;11.618;2024-03-25T07:39:54;6.60;99.90
39925;DHT22;25592;49.986;11.618;2024-03-25T07:42:39;6.60;99.90
39925;DHT22;25592;49.986;11.618;2024-03-25T07:45:24;6.40;99.90
39925;DHT22;25592;49.986;11.618;2024-03-25T07:48:09;6.30;99.90
39925;DHT22;25592;49.986;11.618;2024-03-25T07:50:54;6.40;99.90
39925;DHT22;25592;49.986;11.618;2024-03-25T07:53:38;6.40;99.90
39925;DHT22;25592;49.986;11.618;2024-03-25T07:56:23;6.40;99.90
39925;DHT22;25592;49.986;11.618;2024-03-25T07:59:08;6.40;99.90
39925;DHT22;25592;49.986;11.618;2024-03-25T08:01:52;6.60;99.90
39925;DHT22;25592;49.986;11.618;2024-03-25T08:04:37;6.70;99.90
39925;DHT22;25592;49.986;11.618;2024-03-25T08:07:22;6.80;99.90
39925;DHT22;25592;49.986;11.618;2024-03-25T08:10:06;6.70;99.90
39925;DHT22;25592;49.986;11.618;2024-03-25T08:12:52;6.60;99.90
39925;DHT22;25592;49.986;11.618;2024-03-25T08:15:37;6.70;99.90
39925;DHT22;25592;49.986;11.618;2024-03-25T08:18:22;6.70;99.90
39925;DHT22;25592;49.986;11.618;2024-03-25T08:21:06;6.70;99.90
39925;DHT22;25592;49.986;11.618;2024-03-25T08:23:51;6.60;99.90
39925;DHT22;25592;49.986;11.618;2024-03-25T08:26:35;6.70;99.90
39925;DHT22;25592;49.986;11.618;2024-03-25T08:29:20;6.80;99.90
39925;DHT22;25592;49.986;11.618;2024-03-25T08:32:05;6.70;99.90
39925;DHT22;25592;49.986;11.618;2024-03-25T08:34:49;6.70;99.90
39925;DHT22;25592;49.986;11.618;2024-03-25T08:37:34;6.70;99.90
39925;DHT22;25592;49.986;11.618;2024-03-25T08:40:19;6.80;99.90
39925;DHT22;25592;49.986;11.618;2024-03-25T08:43:03;6.80;99.90
39925;DHT22;25592;49.986;11.618;2024-03-25T08:45:48;6.90;99.90
39925;DHT22;25592;49.986;11.618;2024-03-25T08:48:32;6.90;99.90
39925;DHT22;25592;49.986;11.618;2024-03-25T08:51:17;7.00;99.90
39925;DHT22;25592;49.986;11.618;2024-03-25T08:54:02;7.10;99.90
39925;DHT22;25592;49.986;11.618;2024-03-25T08:56:47;7.10;99.70
39925;DHT22;25592;49.986;11.618;2024-03-25T08:59:31;7.20;99.90
39925;DHT22;25592;49.986;11.618;2024-03-25T09:02:16;7.30;99.80
39925;DHT22;25592;49.986;11.618;2024-03-25T09:05:02;7.30;99.50
39925;DHT22;25592;49.986;11.618;2024-03-25T09:07:49;7.40;99.70
39925;DHT22;25592;49.986;11.618;2024-03-25T09:10:36;7.20;99.60
39925;DHT22;25592;49.986;11.618;2024-03-25T09:13:39;7.30;99.70
39925;DHT22;25592;49.986;11.618;2024-03-25T09:16:24;7.40;99.50
39925;DHT22;25592;49.986;11.618;2024-03-25T09:19:08;7.40;99.30
39925;DHT22;25592;49.986;11.618;2024-03-25T09:21:53;7.30;99.40
39925;DHT22;25592;49.986;11.618;2024-03-25T09:24:37;7.30;99.50
39925;DHT22;25592;49.986;11.618;2024-03-25T09:27:22;7.40;99.60
39925;DHT22;25592;49.986;11.618;2024-03-25T09:30:07;7.40;99.10
39925;DHT22;25592;49.986;11.618;2024-03-25T09:32:54;7.40;99.30
39925;DHT22;25592;49.986;11.618;2024-03-25T09:35:39;7.50;98.80
39925;DHT22;25592;49.986;11.618;2024-03-25T09:38:24;7.50;99.00
39925;DHT22;25592;49.986;11.618;2024-03-25T09:41:09;7.60;98.70
39925;DHT22;25592;49.986;11.618;2024-03-25T09:43:55;7.60;98.60
39925;DHT22;25592;49.986;11.618;2024-03-25T09:46:41;7.50;98.20
39925;DHT22;25592;49.986;11.618;2024-03-25T09:49:28;7.30;98.60
39925;DHT22;25592;49.986;11.618;2024-03-25T09:52:12;7.30;98.80
39925;DHT22;25592;49.986;11.618;2024-03-25T09:54:57;7.40;99.30
39925;DHT22;25592;49.986;11.618;2024-03-25T09:57:45;7.50;98.90
39925;DHT22;25592;49.986;11.618;2024-03-25T10:00:30;7.70;98.90
39925;DHT22;25592;49.986;11.618;2024-03-25T10:03:14;7.70;98.60
39925;DHT22;25592;49.986;11.618;2024-03-25T10:05:59;7.80;98.60
39925;DHT22;25592;49.986;11.618;2024-03-25T10:08:45;7.70;98.30
39925;DHT22;25592;49.986;11.618;2024-03-25T10:11:29;7.80;98.50
39925;DHT22;25592;49.986;11.618;2024-03-25T10:14:16;7.90;98.00
39925;DHT22;25592;49.986;11.618;2024-03-25T10:17:02;7.70;97.70
39925;DHT22;25592;49.986;11.618;2024-03-25T10:19:46;7.80;97.90
39925;DHT22;25592;49.986;11.618;2024-03-25T10:22:41;7.90;97.80
39925;DHT22;25592;49.986;11.618;2024-03-25T10:25:29;7.90;97.80
39925;DHT22;25592;49.986;11.618;2024-03-25T10:28:14;7.80;97.30
39925;DHT22;25592;49.986;11.618;2024-03-25T10:31:05;7.80;97.40
39925;DHT22;25592;49.986;11.618;2024-03-25T10:33:50;7.90;97.30
39925;DHT22;25592;49.986;11.618;2024-03-25T10:36:35;8.10;96.60
39925;DHT22;25592;49.986;11.618;2024-03-25T10:39:20;8.00;96.80
39925;DHT22;25592;49.986;11.618;2024-03-25T10:42:13;8.10;96.70
39925;DHT22;25592;49.986;11.618;2024-03-25T10:44:58;8.30;96.70
39925;DHT22;25592;49.986;11.618;2024-03-25T10:47:42;8.40;96.20
39925;DHT22;25592;49.986;11.618;2024-03-25T10:50:29;8.50;96.20
39925;DHT22;25592;49.986;11.618;2024-03-25T10:53:18;8.50;96.70
39925;DHT22;25592;49.986;11.618;2024-03-25T10:56:03;8.70;96.40
39925;DHT22;25592;49.986;11.618;2024-03-25T10:58:50;8.80;96.10
39925;DHT22;25592;49.986;11.618;2024-03-25T11:01:35;8.70;95.00
39925;DHT22;25592;49.986;11.618;2024-03-25T11:04:22;8.70;95.20
39925;DHT22;25592;49.986;11.618;2024-03-25T11:07:13;8.70;95.00
39925;DHT22;25592;49.986;11.618;2024-03-25T11:10:07;8.70;94.90
39925;DHT22;25592;49.986;11.618;2024-03-25T11:12:52;8.80;95.30
39925;DHT22;25592;49.986;11.618;2024-03-25T11:15:42;8.90;95.30
39925;DHT22;25592;49.986;11.618;2024-03-25T11:18:29;8.70;95.10
39925;DHT22;25592;49.986;11.618;2024-03-25T11:21:24;8.70;95.20
39925;DHT22;25592;49.986;11.618;2024-03-25T11:24:09;8.80;95.10
39925;DHT22;25592;49.986;11.618;2024-03-25T11:26:55;8.80;94.70
39925;DHT22;25592;49.986;11.618;2024-03-25T11:29:39;8.90;94.90
39925;DHT22;25592;49.986;11.618;2024-03-25T11:32:26;9.00;93.90
39925;DHT22;25592;49.986;11.618;2024-03-25T11:35:11;9.00;94.20
39925;DHT22;25592;49.986;11.618;2024-03-25T11:37:56;9.10;94.10
39925;DHT22;25592;49.986;11.618;2024-03-25T11:40:45;9.10;94.00
39925;DHT22;25592;49.986;11.618;2024-03-25T11:43:29;9.10;93.40
39925;DHT22;25592;49.986;11.618;2024-03-25T11:46:17;9.20;93.00
39925;DHT22;25592;49.986;11.618;2024-03-25T11:49:05;9.30;93.10
39925;DHT22;25592;49.986;11.618;2024-03-25T11:51:49;9.50;93.20
39925;DHT22;25592;49.986;11.618;2024-03-25T11:54:34;9.70;93.00
39925;DHT22;25592;49.986;11.618;2024-03-25T11:57:19;10.10;92.20
39925;DHT22;25592;49.986;11.618;2024-03-25T12:00:04;10.40;91.80
39925;DHT22;25592;49.986;11.618;2024-03-25T12:02:55;10.90;91.90
39925;DHT22;25592;49.986;11.618;2024-03-25T12:05:40;11.40;92.50
39925;DHT22;25592;49.986;11.618;2024-03-25T12:08:25;11.40;90.00
39925;DHT22;25592;49.986;11.618;2024-03-25T12:11:10;11.40;90.60
39925;DHT22;25592;49.986;11.618;2024-03-25T12:14:04;11.40;89.60
39925;DHT22;25592;49.986;11.618;2024-03-25T12:16:49;11.30;89.60
39925;DHT22;25592;49.986;11.618;2024-03-25T12:19:35;10.80;90.30
39925;DHT22;25592;49.986;11.618;2024-03-25T12:22:20;10.50;90.40
39925;DHT22;25592;49.986;11.618;2024-03-25T12:25:05;10.30;90.10
39925;DHT22;25592;49.986;11.618;2024-03-25T12:27:50;10.20;90.30
39925;DHT22;25592;49.986;11.618;2024-03-25T12:30:52;10.10;89.90
39925;DHT22;25592;49.986;11.618;2024-03-25T12:33:41;10.10;90.70
39925;DHT22;25592;49.986;11.618;2024-03-25T12:36:25;10.30;90.40
39925;DHT22;25592;49.986;11.618;2024-03-25T12:39:16;10.70;90.60
39925;DHT22;25592;49.986;11.618;2024-03-25T12:42:04;10.90;89.60
39925;DHT22;25592;49.986;11.618;2024-03-25T12:44:49;10.90;88.70
39925;DHT22;25592;49.986;11.618;2024-03-25T12:47:34;10.80;89.00
39925;DHT22;25592;49.986;11.618;2024-03-25T12:50:19;10.80;89.20
39925;DHT22;25592;49.986;11.618;2024-03-25T12:53:05;10.80;90.10
39925;DHT22;25592;49.986;11.618;2024-03-25T12:55:50;10.80;90.10
39925;DHT22;25592;49.986;11.618;2024-03-25T12:58:34;10.90;90.10
39925;DHT22;25592;49.986;11.618;2024-03-25T13:01:19;11.10;90.10
39925;DHT22;25592;49.986;11.618;2024-03-25T13:04:04;11.20;88.70
39925;DHT22;25592;49.986;11.618;2024-03-25T13:06:48;11.20;87.50
39925;DHT22;25592;49.986;11.618;2024-03-25T13:09:33;11.10;88.10
39925;DHT22;25592;49.986;11.618;2024-03-25T13:12:18;11.10;88.20
39925;DHT22;25592;49.986;11.618;2024-03-25T13:15:02;10.80;86.70
39925;DHT22;25592;49.986;11.618;2024-03-25T13:17:47;11.00;88.70
39925;DHT22;25592;49.986;11.618;2024-03-25T13:20:31;11.40;88.60
39925;DHT22;25592;49.986;11.618;2024-03-25T13:23:16;11.50;87.50
39925;DHT22;25592;49.986;11.618;2024-03-25T13:26:01;11.60;86.50
39925;DHT22;25592;49.986;11.618;2024-03-25T13:28:45;11.70;87.80
39925;DHT22;25592;49.986;11.618;2024-03-25T13:31:30;12.30;88.10
39925;DHT22;25592;49.986;11.618;2024-03-25T13:34:15;12.60;86.00
39925;DHT22;25592;49.986;11.618;2024-03-25T13:36:59;12.50;83.80
39925;DHT22;25592;49.986;11.618;2024-03-25T13:39:44;12.60;82.50
39925;DHT22;25592;49.986;11.618;2024-03-25T13:42:30;12.40;81.10
39925;DHT22;25592;49.986;11.618;2024-03-25T13:45:14;12.50;82.30
39925;DHT22;25592;49.986;11.618;2024-03-25T13:47:59;12.70;81.60
39925;DHT22;25592;49.986;11.618;2024-03-25T13:50:44;12.80;82.60
39925;DHT22;25592;49.986;11.618;2024-03-25T13:53:28;13.10;80.60
39925;DHT22;25592;49.986;11.618;2024-03-25T13:56:13;12.90;81.10
39925;DHT22;25592;49.986;11.618;2024-03-25T13:58:58;12.80;80.60
39925;DHT22;25592;49.986;11.618;2024-03-25T14:01:42;12.90;80.60
39925;DHT22;25592;49.986;11.618;2024-03-25T14:04:27;12.90;80.20
39925;DHT22;25592;49.986;11.618;2024-03-25T14:07:12;12.80;81.20
39925;DHT22;25592;49.986;11.618;2024-03-25T14:09:56;12.80;82.00
39925;DHT22;25592;49.986;11.618;2024-03-25T14:12:43;13.10;80.90
39925;DHT22;25592;49.986;11.618;2024-03-25T14:15:29;13.20;81.10
39925;DHT22;25592;49.986;11.618;2024-03-25T14:18:13;13.50;80.50
39925;DHT22;25592;49.986;11.618;2024-03-25T14:20:58;13.20;79.70
39925;DHT22;25592;49.986;11.618;2024-03-25T14:23:42;12.70;80.90
39925;DHT22;25592;49.986;11.618;2024-03-25T14:26:27;12.50;80.50
39925;DHT22;25592;49.986;11.618;2024-03-25T14:29:12;12.50;79.60
39925;DHT22;25592;49.986;11.618;2024-03-25T14:31:57;12.50;81.40
39925;DHT22;25592;49.986;11.618;2024-03-25T14:34:41;12.60;82.30
39925;DHT22;25592;49.986;11.618;2024-03-25T14:37:26;13.10;80.90
39925;DHT22;25592;49.986;11.618;2024-03-25T14:40:11;13.30;80.20
39925;DHT22;25592;49.986;11.618;2024-03-25T14:42:57;13.30;80.20
39925;DHT22;25592;49.986;11.618;2024-03-25T14:45:42;12.80;78.40
39925;DHT22;25592;49.986;11.618;2024-03-25T14:48:26;12.50;81.10
39925;DHT22;25592;49.986;11.618;2024-03-25T14:51:11;12.30;80.00
39925;DHT22;25592;49.986;11.618;2024-03-25T14:53:55;12.00;79.90
39925;DHT22;25592;49.986;11.618;2024-03-25T14:56:41;11.90;81.30
39925;DHT22;25592;49.986;11.618;2024-03-25T14:59:29;12.10;80.40
39925;DHT22;25592;49.986;11.618;2024-03-25T15:02:14;12.40;80.40
39925;DHT22;25592;49.986;11.618;2024-03-25T15:04:59;12.80;81.40
39925;DHT22;25592;49.986;11.618;2024-03-25T15:07:44;13.20;80.30
39925;DHT22;25592;49.986;11.618;2024-03-25T15:10:28;13.50;79.30
39925;DHT22;25592;49.986;11.618;2024-03-25T15:13:14;13.10;78.80
39925;DHT22;25592;49.986;11.618;2024-03-25T15:16:02;13.20;79.20
39925;DHT22;25592;49.986;11.618;2024-03-25T15:18:47;13.50;79.00
39925;DHT22;25592;49.986;11.618;2024-03-25T15:21:32;13.60;77.90
39925;DHT22;25592;49.986;11.618;2024-03-25T15:24:17;13.40;78.90
39925;DHT22;25592;49.986;11.618;2024-03-25T15:27:01;13.50;79.00
39925;DHT22;25592;49.986;11.618;2024-03-25T15:29:46;13.40;78.70
39925;DHT22;25592;49.986;11.618;2024-03-25T15:32:31;13.30;78.40
39925;DHT22;25592;49.986;11.618;2024-03-25T15:35:15;13.30;78.60
39925;DHT22;25592;49.986;11.618;2024-03-25T15:38:00;13.30;78.40
39925;DHT22;25592;49.986;11.618;2024-03-25T15:40:44;13.40;77.00
39925;DHT22;25592;49.986;11.618;2024-03-25T15:43:35;13.20;77.00
39925;DHT22;25592;49.986;11.618;2024-03-25T15:46:20;13.40;78.50
39925;DHT22;25592;49.986;11.618;2024-03-25T15:49:09;13.60;77.80
39925;DHT22;25592;49.986;11.618;2024-03-25T15:51:53;13.70;78.10
39925;DHT22;25592;49.986;11.618;2024-03-25T15:54:38;13.80;77.60
39925;DHT22;25592;49.986;11.618;2024-03-25T15:57:23;13.90;78.00
39925;DHT22;25592;49.986;11.618;2024-03-25T16:00:08;13.80;78.20
39925;DHT22;25592;49.986;11.618;2024-03-25T16:02:54;13.90;79.30
39925;DHT22;25592;49.986;11.618;2024-03-25T16:05:38;13.80;76.30
39925;DHT22;25592;49.986;11.618;2024-03-25T16:08:24;13.70;78.40
39925;DHT22;25592;49.986;11.618;2024-03-25T16:11:16;13.80;79.10
39925;DHT22;25592;49.986;11.618;2024-03-25T16:14:01;13.60;76.20
39925;DHT22;25592;49.986;11.618;2024-03-25T16:16:46;13.70;78.10
39925;DHT22;25592;49.986;11.618;2024-03-25T16:19:31;13.70;77.90
39925;DHT22;25592;49.986;11.618;2024-03-25T16:22:16;13.80;78.30
39925;DHT22;25592;49.986;11.618;2024-03-25T16:25:01;13.80;77.90
39925;DHT22;25592;49.986;11.618;2024-03-25T16:27:45;13.90;78.00
39925;DHT22;25592;49.986;11.618;2024-03-25T16:30:30;13.90;77.90
39925;DHT22;25592;49.986;11.618;2024-03-25T16:33:14;14.00;76.70
39925;DHT22;25592;49.986;11.618;2024-03-25T16:36:00;13.90;78.60
39925;DHT22;25592;49.986;11.618;2024-03-25T16:38:45;13.90;77.80
39925;DHT22;25592;49.986;11.618;2024-03-25T16:41:29;13.90;78.10
39925;DHT22;25592;49.986;11.618;2024-03-25T16:44:14;13.90;78.30
39925;DHT22;25592;49.986;11.618;2024-03-25T16:46:58;13.90;77.80
39925;DHT22;25592;49.986;11.618;2024-03-25T16:49:44;13.90;78.60
39925;DHT22;25592;49.986;11.618;2024-03-25T16:52:29;13.80;78.40
39925;DHT22;25592;49.986;11.618;2024-03-25T16:55:14;13.80;79.00
39925;DHT22;25592;49.986;11.618;2024-03-25T16:57:58;13.80;79.90
39925;DHT22;25592;49.986;11.618;2024-03-25T17:00:43;13.60;78.90
39925;DHT22;25592;49.986;11.618;2024-03-25T17:03:27;13.60;78.90
39925;DHT22;25592;49.986;11.618;2024-03-25T17:06:12;13.40;79.90
39925;DHT22;25592;49.986;11.618;2024-03-25T17:08:56;13.30;79.90
39925;DHT22;25592;49.986;11.618;2024-03-25T17:11:42;13.10;80.10
39925;DHT22;25592;49.986;11.618;2024-03-25T17:14:27;13.00;80.10
39925;DHT22;25592;49.986;11.618;2024-03-25T17:17:11;12.90;80.50